sensor_id;sensor_type;location;lat;lon;timestamp;temperature;humidity
53695;DHT22;39588;51.124;7.190;2022-11-20T00:00:00;3.10;97.00
53695;DHT22;39588;51.124;7.190;2022-11-20T00:07:18;3.10;97.20
53695;DHT22;39588;51.124;7.190;2022-11-20T00:12:09;3.20;97.30
53695;DHT22;39588;51.124;7.190;2022-11-20T00:14:35;3.20;96.90
53695;DHT22;39588;51.124;7.190;2022-11-20T00:17:01;3.10;96.80
53695;DHT22;39588;51.124;7.190;2022-11-20T00:19:26;3.10;96.80
53695;DHT22;39588;51.124;7.190;2022-11-20T00:34:04;3.10;97.00
53695;DHT22;39588;51.124;7.190;2022-11-20T00:36:32;3.00;96.90
53695;DHT22;39588;51.124;7.190;2022-11-20T00:38:59;3.00;97.00
53695;DHT22;39588;51.124;7.190;2022-11-20T00:41:27;3.00;97.00
53695;DHT22;39588;51.124;7.190;2022-11-20T00:43:54;3.00;96.80
53695;DHT22;39588;51.124;7.190;2022-11-20T00:46:23;2.90;96.80
53695;DHT22;39588;51.124;7.190;2022-11-20T00:51:17;3.00;96.90
53695;DHT22;39588;51.124;7.190;2022-11-20T00:56:11;3.00;97.10
53695;DHT22;39588;51.124;7.190;2022-11-20T00:58:38;3.00;97.10
53695;DHT22;39588;51.124;7.190;2022-11-20T01:01:12;3.00;97.10
53695;DHT22;39588;51.124;7.190;2022-11-20T01:03:40;3.00;97.40
53695;DHT22;39588;51.124;7.190;2022-11-20T01:06:33;3.10;97.40
53695;DHT22;39588;51.124;7.190;2022-11-20T01:08:59;3.10;97.10
53695;DHT22;39588;51.124;7.190;2022-11-20T01:11:27;3.10;97.10
53695;DHT22;39588;51.124;7.190;2022-11-20T01:13:54;3.00;97.00
53695;DHT22;39588;51.124;7.190;2022-11-20T01:18:57;3.00;97.00
53695;DHT22;39588;51.124;7.190;2022-11-20T01:21:34;2.90;97.10
53695;DHT22;39588;51.124;7.190;2022-11-20T01:24:01;2.90;97.20
53695;DHT22;39588;51.124;7.190;2022-11-20T01:26:29;2.90;97.30
53695;DHT22;39588;51.124;7.190;2022-11-20T01:28:56;2.90;97.10
53695;DHT22;39588;51.124;7.190;2022-11-20T01:31:23;2.90;97.20
53695;DHT22;39588;51.124;7.190;2022-11-20T01:33:51;2.90;97.20
53695;DHT22;39588;51.124;7.190;2022-11-20T01:36:19;3.00;97.30
53695;DHT22;39588;51.124;7.190;2022-11-20T01:41:13;3.00;97.20
53695;DHT22;39588;51.124;7.190;2022-11-20T01:44:00;3.10;97.30
53695;DHT22;39588;51.124;7.190;2022-11-20T01:46:26;3.10;97.20
53695;DHT22;39588;51.124;7.190;2022-11-20T01:49:05;3.00;97.30
53695;DHT22;39588;51.124;7.190;2022-11-20T01:51:43;3.00;97.10
53695;DHT22;39588;51.124;7.190;2022-11-20T01:54:24;3.00;97.20
53695;DHT22;39588;51.124;7.190;2022-11-20T01:56:53;3.00;97.50
53695;DHT22;39588;51.124;7.190;2022-11-20T01:59:21;3.00;97.60
53695;DHT22;39588;51.124;7.190;2022-11-20T02:01:48;3.00;97.50
53695;DHT22;39588;51.124;7.190;2022-11-20T02:04:15;3.10;97.40
53695;DHT22;39588;51.124;7.190;2022-11-20T02:06:51;3.00;97.40
53695;DHT22;39588;51.124;7.190;2022-11-20T02:09:17;3.00;97.30
53695;DHT22;39588;51.124;7.190;2022-11-20T02:11:43;3.10;97.50
53695;DHT22;39588;51.124;7.190;2022-11-20T02:14:09;3.10;97.60
53695;DHT22;39588;51.124;7.190;2022-11-20T02:16:37;3.10;97.40
53695;DHT22;39588;51.124;7.190;2022-11-20T02:19:07;3.00;97.50
53695;DHT22;39588;51.124;7.190;2022-11-20T02:21:56;3.00;97.50
53695;DHT22;39588;51.124;7.190;2022-11-20T02:27:08;3.10;97.60
53695;DHT22;39588;51.124;7.190;2022-11-20T02:32:19;3.10;97.70
53695;DHT22;39588;51.124;7.190;2022-11-20T02:34:45;3.10;97.50
53695;DHT22;39588;51.124;7.190;2022-11-20T02:37:11;3.10;97.60
53695;DHT22;39588;51.124;7.190;2022-11-20T02:39:37;3.00;97.60
53695;DHT22;39588;51.124;7.190;2022-11-20T02:42:02;3.00;97.70
53695;DHT22;39588;51.124;7.190;2022-11-20T02:44:28;3.10;97.90
53695;DHT22;39588;51.124;7.190;2022-11-20T02:46:57;3.10;97.80
53695;DHT22;39588;51.124;7.190;2022-11-20T02:49:22;3.10;97.80
53695;DHT22;39588;51.124;7.190;2022-11-20T02:51:48;3.10;98.00
53695;DHT22;39588;51.124;7.190;2022-11-20T02:54:14;3.10;98.10
53695;DHT22;39588;51.124;7.190;2022-11-20T03:11:15;3.10;97.70
53695;DHT22;39588;51.124;7.190;2022-11-20T03:16:19;3.00;97.70
53695;DHT22;39588;51.124;7.190;2022-11-20T03:18:46;2.80;97.60
53695;DHT22;39588;51.124;7.190;2022-11-20T03:21:13;2.70;97.80
53695;DHT22;39588;51.124;7.190;2022-11-20T03:23:40;2.50;97.90
53695;DHT22;39588;51.124;7.190;2022-11-20T03:26:19;2.40;98.20
53695;DHT22;39588;51.124;7.190;2022-11-20T03:28:59;2.30;98.20
53695;DHT22;39588;51.124;7.190;2022-11-20T03:31:28;2.30;98.30
53695;DHT22;39588;51.124;7.190;2022-11-20T03:36:20;2.40;98.40
53695;DHT22;39588;51.124;7.190;2022-11-20T03:38:47;2.40;98.40
53695;DHT22;39588;51.124;7.190;2022-11-20T03:41:24;2.50;98.40
53695;DHT22;39588;51.124;7.190;2022-11-20T03:43:58;2.60;98.50
53695;DHT22;39588;51.124;7.190;2022-11-20T03:46:24;2.70;98.40
53695;DHT22;39588;51.124;7.190;2022-11-20T03:48:50;2.70;98.30
53695;DHT22;39588;51.124;7.190;2022-11-20T03:51:27;2.80;98.30
53695;DHT22;39588;51.124;7.190;2022-11-20T03:53:55;2.80;98.30
53695;DHT22;39588;51.124;7.190;2022-11-20T03:56:25;2.70;98.10
53695;DHT22;39588;51.124;7.190;2022-11-20T03:58:51;2.80;98.30
53695;DHT22;39588;51.124;7.190;2022-11-20T04:01:28;2.80;98.20
53695;DHT22;39588;51.124;7.190;2022-11-20T04:03:55;2.80;98.30
53695;DHT22;39588;51.124;7.190;2022-11-20T04:06:25;2.90;98.40
53695;DHT22;39588;51.124;7.190;2022-11-20T04:08:53;2.90;98.30
53695;DHT22;39588;51.124;7.190;2022-11-20T04:11:27;2.90;98.40
53695;DHT22;39588;51.124;7.190;2022-11-20T04:13:56;2.90;98.40
53695;DHT22;39588;51.124;7.190;2022-11-20T04:16:23;3.00;98.60
53695;DHT22;39588;51.124;7.190;2022-11-20T04:18:53;3.00;98.40
53695;DHT22;39588;51.124;7.190;2022-11-20T04:21:18;3.00;98.40
53695;DHT22;39588;51.124;7.190;2022-11-20T04:26:11;3.00;98.30
53695;DHT22;39588;51.124;7.190;2022-11-20T04:28:38;3.00;98.30
53695;DHT22;39588;51.124;7.190;2022-11-20T04:31:13;3.00;98.30
53695;DHT22;39588;51.124;7.190;2022-11-20T04:33:39;3.10;98.30
53695;DHT22;39588;51.124;7.190;2022-11-20T04:36:16;3.00;98.20
53695;DHT22;39588;51.124;7.190;2022-11-20T04:38:43;3.10;98.30
53695;DHT22;39588;51.124;7.190;2022-11-20T04:41:16;3.00;98.00
53695;DHT22;39588;51.124;7.190;2022-11-20T04:43:46;3.00;98.00
53695;DHT22;39588;51.124;7.190;2022-11-20T04:51:05;3.00;98.50
53695;DHT22;39588;51.124;7.190;2022-11-20T04:53:31;3.00;97.90
53695;DHT22;39588;51.124;7.190;2022-11-20T04:56:08;3.00;98.20
53695;DHT22;39588;51.124;7.190;2022-11-20T04:58:35;3.00;98.30
53695;DHT22;39588;51.124;7.190;2022-11-20T05:01:06;3.00;98.30
53695;DHT22;39588;51.124;7.190;2022-11-20T05:03:32;3.00;98.30
53695;DHT22;39588;51.124;7.190;2022-11-20T05:06:02;3.00;98.40
53695;DHT22;39588;51.124;7.190;2022-11-20T05:08:29;3.00;98.30
53695;DHT22;39588;51.124;7.190;2022-11-20T05:11:03;3.00;98.30
53695;DHT22;39588;51.124;7.190;2022-11-20T05:16:04;3.00;98.40
53695;DHT22;39588;51.124;7.190;2022-11-20T05:20:59;3.00;98.50
53695;DHT22;39588;51.124;7.190;2022-11-20T05:23:26;3.00;98.60
53695;DHT22;39588;51.124;7.190;2022-11-20T05:25:53;3.00;98.50
53695;DHT22;39588;51.124;7.190;2022-11-20T05:28:20;2.90;98.40
53695;DHT22;39588;51.124;7.190;2022-11-20T05:30:45;2.90;98.30
53695;DHT22;39588;51.124;7.190;2022-11-20T05:33:11;3.00;98.40
53695;DHT22;39588;51.124;7.190;2022-11-20T05:35:37;3.00;98.40
53695;DHT22;39588;51.124;7.190;2022-11-20T05:38:02;3.00;98.30
53695;DHT22;39588;51.124;7.190;2022-11-20T05:40:28;3.00;98.20
53695;DHT22;39588;51.124;7.190;2022-11-20T05:42:53;3.00;98.20
53695;DHT22;39588;51.124;7.190;2022-11-20T05:59:55;3.10;98.40
53695;DHT22;39588;51.124;7.190;2022-11-20T06:02:20;3.10;98.40
53695;DHT22;39588;51.124;7.190;2022-11-20T06:04:46;3.10;98.30
53695;DHT22;39588;51.124;7.190;2022-11-20T06:07:12;3.10;98.20
53695;DHT22;39588;51.124;7.190;2022-11-20T06:21:48;3.20;98.40
53695;DHT22;39588;51.124;7.190;2022-11-20T06:24:15;3.20;98.50
53695;DHT22;39588;51.124;7.190;2022-11-20T06:26:41;3.20;98.60
53695;DHT22;39588;51.124;7.190;2022-11-20T06:31:38;3.20;98.50
53695;DHT22;39588;51.124;7.190;2022-11-20T06:34:05;3.20;98.50
53695;DHT22;39588;51.124;7.190;2022-11-20T06:36:32;3.20;98.50
53695;DHT22;39588;51.124;7.190;2022-11-20T06:38:58;3.20;98.40
53695;DHT22;39588;51.124;7.190;2022-11-20T06:43:51;3.10;98.40
53695;DHT22;39588;51.124;7.190;2022-11-20T06:46:18;3.10;98.60
53695;DHT22;39588;51.124;7.190;2022-11-20T06:48:44;3.00;98.30
53695;DHT22;39588;51.124;7.190;2022-11-20T06:51:10;3.00;98.50
53695;DHT22;39588;51.124;7.190;2022-11-20T06:53:36;3.00;98.50
53695;DHT22;39588;51.124;7.190;2022-11-20T06:56:02;3.00;98.70
53695;DHT22;39588;51.124;7.190;2022-11-20T06:58:29;3.00;98.60
53695;DHT22;39588;51.124;7.190;2022-11-20T07:01:06;3.00;98.60
53695;DHT22;39588;51.124;7.190;2022-11-20T07:03:33;2.90;98.40
53695;DHT22;39588;51.124;7.190;2022-11-20T07:06:00;2.80;98.40
53695;DHT22;39588;51.124;7.190;2022-11-20T07:08:26;2.70;98.50
53695;DHT22;39588;51.124;7.190;2022-11-20T07:15:43;2.30;98.70
53695;DHT22;39588;51.124;7.190;2022-11-20T07:18:09;2.20;98.90
53695;DHT22;39588;51.124;7.190;2022-11-20T07:20:34;2.10;98.90
53695;DHT22;39588;51.124;7.190;2022-11-20T07:25:27;2.10;99.10
53695;DHT22;39588;51.124;7.190;2022-11-20T07:27:57;2.00;98.90
53695;DHT22;39588;51.124;7.190;2022-11-20T07:30:23;2.00;98.90
53695;DHT22;39588;51.124;7.190;2022-11-20T07:32:53;2.00;99.00
53695;DHT22;39588;51.124;7.190;2022-11-20T07:35:19;2.00;98.90
53695;DHT22;39588;51.124;7.190;2022-11-20T07:37:45;2.00;98.90
53695;DHT22;39588;51.124;7.190;2022-11-20T07:40:12;2.00;99.00
53695;DHT22;39588;51.124;7.190;2022-11-20T07:42:38;2.10;99.10
53695;DHT22;39588;51.124;7.190;2022-11-20T07:45:04;2.20;99.00
53695;DHT22;39588;51.124;7.190;2022-11-20T07:47:35;2.20;99.00
53695;DHT22;39588;51.124;7.190;2022-11-20T07:50:01;2.30;99.10
53695;DHT22;39588;51.124;7.190;2022-11-20T07:54:53;2.40;98.90
53695;DHT22;39588;51.124;7.190;2022-11-20T07:57:18;2.40;98.90
53695;DHT22;39588;51.124;7.190;2022-11-20T07:59:44;2.30;98.90
53695;DHT22;39588;51.124;7.190;2022-11-20T08:02:11;2.30;98.90
53695;DHT22;39588;51.124;7.190;2022-11-20T08:04:37;2.30;99.10
53695;DHT22;39588;51.124;7.190;2022-11-20T08:09:28;2.30;99.20
53695;DHT22;39588;51.124;7.190;2022-11-20T08:11:54;2.30;99.10
53695;DHT22;39588;51.124;7.190;2022-11-20T08:14:38;2.30;98.90
53695;DHT22;39588;51.124;7.190;2022-11-20T08:19:29;2.30;99.10
53695;DHT22;39588;51.124;7.190;2022-11-20T08:21:55;2.20;99.20
53695;DHT22;39588;51.124;7.190;2022-11-20T08:24:21;2.20;99.20
53695;DHT22;39588;51.124;7.190;2022-11-20T08:26:46;2.20;99.00
53695;DHT22;39588;51.124;7.190;2022-11-20T08:34:04;2.20;99.00
53695;DHT22;39588;51.124;7.190;2022-11-20T08:36:33;2.30;99.10
53695;DHT22;39588;51.124;7.190;2022-11-20T08:38:59;2.30;99.20
53695;DHT22;39588;51.124;7.190;2022-11-20T08:44:06;2.50;99.20
53695;DHT22;39588;51.124;7.190;2022-11-20T08:46:34;2.70;99.40
53695;DHT22;39588;51.124;7.190;2022-11-20T08:49:10;2.90;99.30
53695;DHT22;39588;51.124;7.190;2022-11-20T08:51:36;3.20;99.20
53695;DHT22;39588;51.124;7.190;2022-11-20T08:54:03;3.30;98.90
53695;DHT22;39588;51.124;7.190;2022-11-20T09:01:23;3.80;98.40
53695;DHT22;39588;51.124;7.190;2022-11-20T09:03:48;3.90;98.20
53695;DHT22;39588;51.124;7.190;2022-11-20T09:06:15;4.00;98.10
53695;DHT22;39588;51.124;7.190;2022-11-20T09:08:41;4.10;98.00
53695;DHT22;39588;51.124;7.190;2022-11-20T09:11:07;4.00;97.50
53695;DHT22;39588;51.124;7.190;2022-11-20T09:13:34;4.00;97.50
53695;DHT22;39588;51.124;7.190;2022-11-20T09:16:06;3.90;97.40
53695;DHT22;39588;51.124;7.190;2022-11-20T09:18:32;3.80;97.00
53695;DHT22;39588;51.124;7.190;2022-11-20T09:21:00;3.80;97.10
53695;DHT22;39588;51.124;7.190;2022-11-20T09:23:26;3.70;97.20
53695;DHT22;39588;51.124;7.190;2022-11-20T09:25:52;3.80;97.50
53695;DHT22;39588;51.124;7.190;2022-11-20T09:38:08;4.30;97.20
53695;DHT22;39588;51.124;7.190;2022-11-20T09:40:38;4.30;97.00
53695;DHT22;39588;51.124;7.190;2022-11-20T09:44:02;4.30;97.30
53695;DHT22;39588;51.124;7.190;2022-11-20T09:51:58;4.20;97.00
53695;DHT22;39588;51.124;7.190;2022-11-20T09:54:36;4.00;97.10
53695;DHT22;39588;51.124;7.190;2022-11-20T09:57:08;4.00;97.40
53695;DHT22;39588;51.124;7.190;2022-11-20T09:59:39;4.00;97.70
53695;DHT22;39588;51.124;7.190;2022-11-20T10:05:15;4.20;97.70
53695;DHT22;39588;51.124;7.190;2022-11-20T10:10:38;4.40;97.60
53695;DHT22;39588;51.124;7.190;2022-11-20T10:16:13;4.70;97.10
53695;DHT22;39588;51.124;7.190;2022-11-20T10:27:27;5.50;96.60
53695;DHT22;39588;51.124;7.190;2022-11-20T10:30:16;5.70;96.40
53695;DHT22;39588;51.124;7.190;2022-11-20T10:33:17;5.90;96.20
53695;DHT22;39588;51.124;7.190;2022-11-20T10:38:43;6.20;95.50
53695;DHT22;39588;51.124;7.190;2022-11-20T10:41:24;5.90;95.60
53695;DHT22;39588;51.124;7.190;2022-11-20T10:46:43;5.60;95.70
53695;DHT22;39588;51.124;7.190;2022-11-20T10:49:18;5.40;96.00
53695;DHT22;39588;51.124;7.190;2022-11-20T11:00:10;5.20;96.60
53695;DHT22;39588;51.124;7.190;2022-11-20T11:02:43;5.30;96.60
53695;DHT22;39588;51.124;7.190;2022-11-20T11:05:35;5.30;96.60
53695;DHT22;39588;51.124;7.190;2022-11-20T11:07:58;5.40;96.70
53695;DHT22;39588;51.124;7.190;2022-11-20T11:10:39;5.40;96.70
53695;DHT22;39588;51.124;7.190;2022-11-20T11:13:07;5.30;96.60
53695;DHT22;39588;51.124;7.190;2022-11-20T11:18:29;5.00;97.00
53695;DHT22;39588;51.124;7.190;2022-11-20T11:21:02;5.00;97.00
53695;DHT22;39588;51.124;7.190;2022-11-20T11:23:38;5.00;96.90
53695;DHT22;39588;51.124;7.190;2022-11-20T11:26:27;5.00;97.00
53695;DHT22;39588;51.124;7.190;2022-11-20T11:28:59;4.90;97.00
53695;DHT22;39588;51.124;7.190;2022-11-20T11:31:27;5.00;97.10
53695;DHT22;39588;51.124;7.190;2022-11-20T11:34:07;4.90;97.00
53695;DHT22;39588;51.124;7.190;2022-11-20T11:36:34;4.90;97.00
53695;DHT22;39588;51.124;7.190;2022-11-20T11:39:01;4.90;97.10
53695;DHT22;39588;51.124;7.190;2022-11-20T11:41:30;4.80;97.00
53695;DHT22;39588;51.124;7.190;2022-11-20T11:44:01;4.80;97.20
53695;DHT22;39588;51.124;7.190;2022-11-20T11:46:56;4.70;97.20
53695;DHT22;39588;51.124;7.190;2022-11-20T11:52:03;4.60;97.40
53695;DHT22;39588;51.124;7.190;2022-11-20T12:00:10;4.70;97.60
53695;DHT22;39588;51.124;7.190;2022-11-20T12:05:23;4.80;97.50
53695;DHT22;39588;51.124;7.190;2022-11-20T12:10:43;5.00;97.70
53695;DHT22;39588;51.124;7.190;2022-11-20T12:13:17;5.10;97.40
53695;DHT22;39588;51.124;7.190;2022-11-20T12:15:45;5.10;97.50
53695;DHT22;39588;51.124;7.190;2022-11-20T12:18:16;5.10;97.30
53695;DHT22;39588;51.124;7.190;2022-11-20T12:20:50;5.20;97.30
53695;DHT22;39588;51.124;7.190;2022-11-20T12:29:41;5.00;97.30
53695;DHT22;39588;51.124;7.190;2022-11-20T12:35:04;4.90;97.60
53695;DHT22;39588;51.124;7.190;2022-11-20T12:37:36;4.90;97.60
53695;DHT22;39588;51.124;7.190;2022-11-20T12:40:28;4.90;97.40
53695;DHT22;39588;51.124;7.190;2022-11-20T12:43:16;4.80;97.60
53695;DHT22;39588;51.124;7.190;2022-11-20T12:46:31;4.70;97.80
53695;DHT22;39588;51.124;7.190;2022-11-20T13:03:03;5.00;97.70
53695;DHT22;39588;51.124;7.190;2022-11-20T13:08:25;4.90;97.80
53695;DHT22;39588;51.124;7.190;2022-11-20T13:11:00;4.90;97.80
53695;DHT22;39588;51.124;7.190;2022-11-20T13:16:21;4.80;98.00
53695;DHT22;39588;51.124;7.190;2022-11-20T13:18:47;4.80;98.00
53695;DHT22;39588;51.124;7.190;2022-11-20T13:21:43;4.80;98.20
53695;DHT22;39588;51.124;7.190;2022-11-20T13:29:42;5.00;98.10
53695;DHT22;39588;51.124;7.190;2022-11-20T13:32:18;5.00;98.10
53695;DHT22;39588;51.124;7.190;2022-11-20T13:34:53;4.90;98.20
53695;DHT22;39588;51.124;7.190;2022-11-20T13:37:34;4.80;98.40
53695;DHT22;39588;51.124;7.190;2022-11-20T13:42:51;4.80;98.40
53695;DHT22;39588;51.124;7.190;2022-11-20T13:45:28;4.80;98.60
53695;DHT22;39588;51.124;7.190;2022-11-20T13:47:55;4.80;98.60
53695;DHT22;39588;51.124;7.190;2022-11-20T13:50:40;4.90;98.50
53695;DHT22;39588;51.124;7.190;2022-11-20T13:55:43;4.90;98.50
53695;DHT22;39588;51.124;7.190;2022-11-20T13:58:43;4.90;98.60
53695;DHT22;39588;51.124;7.190;2022-11-20T14:01:17;4.90;98.50
53695;DHT22;39588;51.124;7.190;2022-11-20T14:03:45;5.00;98.40
53695;DHT22;39588;51.124;7.190;2022-11-20T14:06:27;4.90;98.40
53695;DHT22;39588;51.124;7.190;2022-11-20T14:08:53;5.00;98.40
53695;DHT22;39588;51.124;7.190;2022-11-20T14:11:20;5.00;98.50
53695;DHT22;39588;51.124;7.190;2022-11-20T14:14:16;5.00;98.40
53695;DHT22;39588;51.124;7.190;2022-11-20T14:16:43;4.90;98.50
53695;DHT22;39588;51.124;7.190;2022-11-20T14:19:29;4.90;98.50
53695;DHT22;39588;51.124;7.190;2022-11-20T14:22:24;4.90;98.40
53695;DHT22;39588;51.124;7.190;2022-11-20T14:27:39;4.80;98.60
53695;DHT22;39588;51.124;7.190;2022-11-20T14:33:03;4.70;98.60
53695;DHT22;39588;51.124;7.190;2022-11-20T14:35:34;4.70;98.70
53695;DHT22;39588;51.124;7.190;2022-11-20T14:38:01;4.70;98.60
53695;DHT22;39588;51.124;7.190;2022-11-20T14:40:33;4.70;98.60
53695;DHT22;39588;51.124;7.190;2022-11-20T14:43:01;4.70;98.70
53695;DHT22;39588;51.124;7.190;2022-11-20T14:47:55;4.70;98.70
53695;DHT22;39588;51.124;7.190;2022-11-20T14:50:27;4.70;98.70
53695;DHT22;39588;51.124;7.190;2022-11-20T14:55:36;4.70;98.70
53695;DHT22;39588;51.124;7.190;2022-11-20T14:58:23;4.70;98.80
53695;DHT22;39588;51.124;7.190;2022-11-20T15:01:03;4.70;98.80
53695;DHT22;39588;51.124;7.190;2022-11-20T15:05:57;4.70;98.90
53695;DHT22;39588;51.124;7.190;2022-11-20T15:08:23;4.70;98.90
53695;DHT22;39588;51.124;7.190;2022-11-20T15:10:50;4.70;99.00
53695;DHT22;39588;51.124;7.190;2022-11-20T15:13:30;4.70;99.10
53695;DHT22;39588;51.124;7.190;2022-11-20T15:15:58;4.60;99.00
53695;DHT22;39588;51.124;7.190;2022-11-20T15:18:31;4.60;99.00
53695;DHT22;39588;51.124;7.190;2022-11-20T15:21:01;4.60;99.10
53695;DHT22;39588;51.124;7.190;2022-11-20T15:23:27;4.60;99.20
53695;DHT22;39588;51.124;7.190;2022-11-20T15:25:54;4.60;99.30
53695;DHT22;39588;51.124;7.190;2022-11-20T15:30:48;2.10;98.30
53695;DHT22;39588;51.124;7.190;2022-11-20T15:33:14;4.60;99.30
53695;DHT22;39588;51.124;7.190;2022-11-20T15:35:41;4.60;99.30
53695;DHT22;39588;51.124;7.190;2022-11-20T15:40:32;4.60;99.50
53695;DHT22;39588;51.124;7.190;2022-11-20T15:42:58;4.60;99.60
53695;DHT22;39588;51.124;7.190;2022-11-20T15:45:43;4.60;99.60
53695;DHT22;39588;51.124;7.190;2022-11-20T15:48:24;4.60;99.90
53695;DHT22;39588;51.124;7.190;2022-11-20T16:00:49;4.60;99.90
53695;DHT22;39588;51.124;7.190;2022-11-20T16:03:16;4.60;99.90
53695;DHT22;39588;51.124;7.190;2022-11-20T16:05:43;4.60;99.90
53695;DHT22;39588;51.124;7.190;2022-11-20T16:08:08;4.60;99.90
53695;DHT22;39588;51.124;7.190;2022-11-20T16:10:34;4.70;99.90
53695;DHT22;39588;51.124;7.190;2022-11-20T16:15:51;4.60;99.90
53695;DHT22;39588;51.124;7.190;2022-11-20T16:18:19;4.60;99.90
53695;DHT22;39588;51.124;7.190;2022-11-20T16:20:51;4.70;99.90
53695;DHT22;39588;51.124;7.190;2022-11-20T16:23:17;4.70;99.90
53695;DHT22;39588;51.124;7.190;2022-11-20T16:25:43;4.70;99.90
53695;DHT22;39588;51.124;7.190;2022-11-20T16:28:10;4.70;99.90
53695;DHT22;39588;51.124;7.190;2022-11-20T16:30:36;4.70;99.90
53695;DHT22;39588;51.124;7.190;2022-11-20T16:33:02;4.80;99.90
53695;DHT22;39588;51.124;7.190;2022-11-20T16:35:30;4.70;99.90
53695;DHT22;39588;51.124;7.190;2022-11-20T16:37:56;4.70;99.90
53695;DHT22;39588;51.124;7.190;2022-11-20T16:40:22;4.80;99.90
53695;DHT22;39588;51.124;7.190;2022-11-20T16:42:48;4.80;99.90
53695;DHT22;39588;51.124;7.190;2022-11-20T16:45:14;4.80;99.90
53695;DHT22;39588;51.124;7.190;2022-11-20T16:47:40;4.90;99.90
53695;DHT22;39588;51.124;7.190;2022-11-20T16:50:06;4.90;99.90
53695;DHT22;39588;51.124;7.190;2022-11-20T16:52:32;4.90;99.90
53695;DHT22;39588;51.124;7.190;2022-11-20T16:54:58;4.90;99.90
53695;DHT22;39588;51.124;7.190;2022-11-20T16:57:26;5.00;99.90
53695;DHT22;39588;51.124;7.190;2022-11-20T16:59:52;5.00;99.90
53695;DHT22;39588;51.124;7.190;2022-11-20T17:02:17;5.00;99.90
53695;DHT22;39588;51.124;7.190;2022-11-20T17:04:43;5.00;99.90
53695;DHT22;39588;51.124;7.190;2022-11-20T17:07:09;5.00;99.90
53695;DHT22;39588;51.124;7.190;2022-11-20T17:09:35;5.00;99.90
53695;DHT22;39588;51.124;7.190;2022-11-20T17:12:00;5.00;99.90
53695;DHT22;39588;51.124;7.190;2022-11-20T17:14:26;5.00;99.90
53695;DHT22;39588;51.124;7.190;2022-11-20T17:16:52;5.00;99.90
53695;DHT22;39588;51.124;7.190;2022-11-20T17:19:17;5.00;99.90
53695;DHT22;39588;51.124;7.190;2022-11-20T17:21:43;5.00;99.90
53695;DHT22;39588;51.124;7.190;2022-11-20T17:24:11;5.00;99.90
53695;DHT22;39588;51.124;7.190;2022-11-20T17:26:39;5.10;99.90
53695;DHT22;39588;51.124;7.190;2022-11-20T17:29:06;5.10;99.90
53695;DHT22;39588;51.124;7.190;2022-11-20T17:31:33;5.10;99.90
53695;DHT22;39588;51.124;7.190;2022-11-20T17:33:59;5.00;99.90
53695;DHT22;39588;51.124;7.190;2022-11-20T17:36:25;5.00;99.90
53695;DHT22;39588;51.124;7.190;2022-11-20T17:38:51;5.00;99.90
53695;DHT22;39588;51.124;7.190;2022-11-20T17:41:19;5.00;99.90
53695;DHT22;39588;51.124;7.190;2022-11-20T17:43:47;5.00;99.90
53695;DHT22;39588;51.124;7.190;2022-11-20T17:46:14;5.00;99.90
53695;DHT22;39588;51.124;7.190;2022-11-20T17:48:41;5.00;99.90
53695;DHT22;39588;51.124;7.190;2022-11-20T17:51:10;5.00;99.90
53695;DHT22;39588;51.124;7.190;2022-11-20T17:53:38;5.10;99.90
53695;DHT22;39588;51.124;7.190;2022-11-20T17:56:04;5.00;99.90
53695;DHT22;39588;51.124;7.190;2022-11-20T17:58:48;5.10;99.90
53695;DHT22;39588;51.124;7.190;2022-11-20T18:01:15;5.10;99.90
53695;DHT22;39588;51.124;7.190;2022-11-20T18:03:41;5.10;99.90
53695;DHT22;39588;51.124;7.190;2022-11-20T18:06:11;5.00;99.90
53695;DHT22;39588;51.124;7.190;2022-11-20T18:08:38;5.10;99.90
53695;DHT22;39588;51.124;7.190;2022-11-20T18:11:15;5.00;99.90
53695;DHT22;39588;51.124;7.190;2022-11-20T18:13:43;5.00;99.90
53695;DHT22;39588;51.124;7.190;2022-11-20T18:16:32;5.00;99.90
53695;DHT22;39588;51.124;7.190;2022-11-20T18:18:59;5.00;99.90
53695;DHT22;39588;51.124;7.190;2022-11-20T18:21:26;5.00;99.90
53695;DHT22;39588;51.124;7.190;2022-11-20T18:23:54;5.10;99.90
53695;DHT22;39588;51.124;7.190;2022-11-20T18:26:20;5.10;99.90
53695;DHT22;39588;51.124;7.190;2022-11-20T18:28:46;5.20;99.90
53695;DHT22;39588;51.124;7.190;2022-11-20T18:31:12;5.20;99.90
53695;DHT22;39588;51.124;7.190;2022-11-20T18:33:38;5.20;99.90
53695;DHT22;39588;51.124;7.190;2022-11-20T18:36:15;5.30;99.90
53695;DHT22;39588;51.124;7.190;2022-11-20T18:38:47;5.30;99.90
53695;DHT22;39588;51.124;7.190;2022-11-20T18:41:14;5.30;99.90
53695;DHT22;39588;51.124;7.190;2022-11-20T18:44:04;5.30;99.90
53695;DHT22;39588;51.124;7.190;2022-11-20T18:46:50;5.40;99.90
53695;DHT22;39588;51.124;7.190;2022-11-20T18:49:15;5.30;99.90
53695;DHT22;39588;51.124;7.190;2022-11-20T18:54:11;5.50;99.90
53695;DHT22;39588;51.124;7.190;2022-11-20T18:56:37;5.50;99.90
53695;DHT22;39588;51.124;7.190;2022-11-20T18:59:05;5.50;99.90
53695;DHT22;39588;51.124;7.190;2022-11-20T19:01:31;5.50;99.90
53695;DHT22;39588;51.124;7.190;2022-11-20T19:03:57;5.50;99.90
53695;DHT22;39588;51.124;7.190;2022-11-20T19:06:23;5.60;99.90
53695;DHT22;39588;51.124;7.190;2022-11-20T19:08:49;5.70;99.90
53695;DHT22;39588;51.124;7.190;2022-11-20T19:11:15;5.70;99.90
53695;DHT22;39588;51.124;7.190;2022-11-20T19:13:40;5.80;99.90
53695;DHT22;39588;51.124;7.190;2022-11-20T19:16:14;5.80;99.90
53695;DHT22;39588;51.124;7.190;2022-11-20T19:18:40;5.80;99.90
53695;DHT22;39588;51.124;7.190;2022-11-20T19:21:07;5.80;99.90
53695;DHT22;39588;51.124;7.190;2022-11-20T19:23:33;5.90;99.90
53695;DHT22;39588;51.124;7.190;2022-11-20T19:25:59;5.90;99.90
53695;DHT22;39588;51.124;7.190;2022-11-20T19:28:26;5.90;99.90
53695;DHT22;39588;51.124;7.190;2022-11-20T19:30:52;5.90;99.90
53695;DHT22;39588;51.124;7.190;2022-11-20T19:33:17;6.30;99.90
53695;DHT22;39588;51.124;7.190;2022-11-20T19:35:43;6.00;99.90
53695;DHT22;39588;51.124;7.190;2022-11-20T19:38:09;6.10;99.90
53695;DHT22;39588;51.124;7.190;2022-11-20T19:40:34;6.10;99.90
53695;DHT22;39588;51.124;7.190;2022-11-20T19:43:00;6.20;99.90
53695;DHT22;39588;51.124;7.190;2022-11-20T19:45:26;6.10;99.90
53695;DHT22;39588;51.124;7.190;2022-11-20T19:47:52;6.10;99.90
53695;DHT22;39588;51.124;7.190;2022-11-20T19:50:17;6.20;99.90
53695;DHT22;39588;51.124;7.190;2022-11-20T19:52:43;6.20;99.90
53695;DHT22;39588;51.124;7.190;2022-11-20T19:55:08;6.20;99.90
53695;DHT22;39588;51.124;7.190;2022-11-20T19:57:35;6.20;99.90
53695;DHT22;39588;51.124;7.190;2022-11-20T20:00:00;6.50;99.90
53695;DHT22;39588;51.124;7.190;2022-11-20T20:02:26;6.20;99.90
53695;DHT22;39588;51.124;7.190;2022-11-20T20:04:52;6.20;99.90
53695;DHT22;39588;51.124;7.190;2022-11-20T20:07:18;6.20;99.90
53695;DHT22;39588;51.124;7.190;2022-11-20T20:09:43;6.20;99.90
53695;DHT22;39588;51.124;7.190;2022-11-20T20:12:09;6.30;99.90
53695;DHT22;39588;51.124;7.190;2022-11-20T20:14:35;6.30;99.90
53695;DHT22;39588;51.124;7.190;2022-11-20T20:17:00;6.30;99.90
53695;DHT22;39588;51.124;7.190;2022-11-20T20:19:26;6.30;99.90
53695;DHT22;39588;51.124;7.190;2022-11-20T20:21:52;6.30;99.90